Dumfries, United Kingdom
Current Conditions -  °F | °C
As of 1:50 PM on Monday 26 Jan 2015 (Local Time) from EGOM Reporting Station
Broken Clouds Broken Clouds  
Wind Chill: -1°   Ceiling: 800
Heat Index:   Visibility: 6mi
Dew Point:   Wind: 13mph
Humidity: 100%   Direction: 270°W
Pressure: 30.12"   Gusts: NA
Location:  55.07°N, 3.61°W
Report Text: EGOM 261350Z 27011KT 9999 BKN008 03/03 Q1020 GRN
Loading
Personal Weather Stations






























Interactive Weather Map New forecast layout! Learn more

10-Day Weather Forecast

Advertisements
Track Severe Weather on mobile